Etters, Pennsylvania
Current Conditions -  °F | °C
As of 8:56 AM on Thursday 23 Oct 2014 (Local Time) from KMDT Reporting Station
Overcast Overcast  
Wind Chill: 54°   Ceiling: 3100
Heat Index: 54°   Visibility: 10mi
Dew Point: 42°   Wind: 16mph
Humidity: 64%   Direction: 340°NNW
Pressure: 29.87"   Gusts: 25mph
Location:  40.15°N, 76.79°W
Report Text: KMDT 231256Z 34014G22KT 10SM OVC031 12/06 A2987 RMK AO2 SLP115 T01220056
Loading
Personal Weather Stations






























Interactive Weather Map New forecast layout! Learn more

10-Day Weather Forecast

Advertisements
Track Severe Weather on mobile